Gerton, NC

01:39 PM EST on Novembru 21, 2014 (GMT -0500)
Little Bearwallow MOUNTAIN | Change Station
CLOSE
Current Station
Personal Weather Stations
Location: Hendersonville, NC
Elevation: 2820 ft
Nearby Weather Stations

Elev 2820 ft 35.44 °N, 82.35 °W | Updated 6 seconds ago

ċar
ċar
46.0 °F
Feels Like 46 °F
N
1.0
rih varjabbli rih from Grieg it-tramuntana
Gusts 0.0 mph

Illum
High -- | Low -- °F
--% Chance of Precip.
Yesterday
High -- | Low -- °F
Precip. -- in
7:10 AM 5:19 PM
Waning Crescent, 1% visible
pressjoni 30.40 in
vizibilita 10.0 mili
s ċar
kesha tar-rih 46 °F
punt ta' nida 10 °F
umdita 23%
Rainfall 0.00 in
Snow Depth Not available.
UV 4 out of 12
Pollen .30 out of 12
Air Quality Not available.
Flu Activity Not available.
METAR KAVL 211754Z 35009KT 10SM CLR 10/M10 A3039 RMK AO2 SLP292 T01001100 10100 21006 58000

More Conditions Fewer Conditions

pressjoni 30.40 in
vizibilita 10.0 mili
s ċar
kesha tar-rih 46 °F
punt ta' nida 10 °F
umdita 23%
Rainfall 0.00 in
Snow Depth Not available.
UV 4 out of 12
Pollen .30 out of 12
Air Quality Not available.
Flu Activity Not available.
METAR KAVL 211754Z 35009KT 10SM CLR 10/M10 A3039 RMK AO2 SLP292 T01001100 10100 21006 58000

More Conditions Fewer Conditions

10-Day Weather Forecast

Almanac

Astronomy

Nov. 21, 2014 Rise Set
Actual Time
Civil Twilight
Nautical Twilight
Astronomical Twilight
Moon
Length Of Visible Light
Length of Day
Tomorrow will be .
, % of the Moon is Illuminated

Today's Extremes

State Highs State Lows

Community

WunderPhotos

Upload Photos

1,772,693 photos uploaded!

WunderBlogs® & News

Nearby

Air Quality

  Air Quality AQ Index Pollutant
Not available.

Snow Depth

Station Depth Elevation

Earthquake Activity

City Distance Mag. Time & Date
Minimum magnitude displayed is 2.5.

Coastal Water Temperatures

Post temperatura

Nearby Weather Stations